createdAt,value
2022-11-14T00:01:33.991Z,22.45
2022-11-14T00:04:23.344Z,21.67
2022-11-14T00:07:15.311Z,23.50
2022-11-14T00:10:01.947Z,23.25
2022-11-14T00:12:48.541Z,21.77
2022-11-14T00:15:35.225Z,22.08
2022-11-14T00:18:22.594Z,23.02
2022-11-14T00:21:09.702Z,21.08
2022-11-14T00:23:57.629Z,23.42
2022-11-14T00:26:44.567Z,22.73
2022-11-14T00:29:31.342Z,20.05
2022-11-14T00:32:18.150Z,20.38
2022-11-14T00:35:05.378Z,21.70
2022-11-14T00:37:52.881Z,21.85
2022-11-14T00:40:41.098Z,22.27
2022-11-14T00:43:27.830Z,22.55
2022-11-14T00:46:14.823Z,20.88
2022-11-14T00:49:02.613Z,21.05
2022-11-14T00:51:49.287Z,21.88
2022-11-14T00:54:36.207Z,23.30
2022-11-14T00:57:24.053Z,23.00
2022-11-14T01:00:13.492Z,21.70
2022-11-14T01:02:59.933Z,23.48
2022-11-14T01:05:48.355Z,21.67
2022-11-14T01:08:35.692Z,25.15
2022-11-14T01:11:23.796Z,23.15
2022-11-14T01:14:11.861Z,21.13
2022-11-14T01:16:58.769Z,22.17
2022-11-14T01:19:45.596Z,21.70
2022-11-14T01:22:32.469Z,23.45
2022-11-14T01:25:19.426Z,22.02
2022-11-14T01:28:07.483Z,21.33
2022-11-14T01:30:55.573Z,21.50
2022-11-14T01:33:42.827Z,21.25
2022-11-14T01:36:29.393Z,20.67
2022-11-14T01:39:16.374Z,21.13
2022-11-14T01:42:03.337Z,21.23
2022-11-14T01:44:52.449Z,22.08
2022-11-14T01:47:40.837Z,20.38
2022-11-14T01:50:28.576Z,20.92
2022-11-14T01:53:15.399Z,22.15
2022-11-14T01:56:06.993Z,21.52
2022-11-14T01:58:58.971Z,22.55
2022-11-14T02:01:48.934Z,21.70
2022-11-14T02:04:41.272Z,22.25
2022-11-14T02:07:31.219Z,22.20
2022-11-14T02:10:21.176Z,21.05
2022-11-14T02:13:08.993Z,20.88
2022-11-14T02:15:55.939Z,21.10
2022-11-14T02:18:42.943Z,21.38
2022-11-14T02:21:31.280Z,19.92
2022-11-14T02:24:18.385Z,20.17
2022-11-14T02:27:07.065Z,19.08
2022-11-14T02:29:53.868Z,21.17
2022-11-14T02:33:09.002Z,20.20
2022-11-14T02:35:47.388Z,21.98
2022-11-14T02:38:35.344Z,20.80
2022-11-14T02:41:21.733Z,20.08
2022-11-14T02:44:08.524Z,21.65
2022-11-14T02:46:55.442Z,22.42
2022-11-14T02:49:42.215Z,23.25
2022-11-14T02:52:28.886Z,23.40
2022-11-14T02:55:17.511Z,22.83
2022-11-14T02:58:04.256Z,22.85
2022-11-14T03:01:18.506Z,22.65
2022-11-14T03:03:57.983Z,22.40
2022-11-14T03:06:44.425Z,22.38
2022-11-14T03:09:30.945Z,22.15
2022-11-14T03:12:20.006Z,23.08
2022-11-14T03:15:07.925Z,23.70
2022-11-14T03:17:54.925Z,22.65
2022-11-14T03:20:41.883Z,23.48
2022-11-14T03:23:28.641Z,23.13
2022-11-14T03:26:16.605Z,22.42
2022-11-14T03:29:04.829Z,24.75
2022-11-14T03:31:51.501Z,24.52
2022-11-14T03:34:38.269Z,25.33
2022-11-14T03:37:24.954Z,24.48
2022-11-14T03:40:12.890Z,26.38
2022-11-14T03:42:59.782Z,24.15
2022-11-14T03:45:48.922Z,24.73
2022-11-14T03:48:35.300Z,22.73
2022-11-14T03:51:22.133Z,24.27
2022-11-14T03:54:08.803Z,24.60
2022-11-14T03:56:55.280Z,24.10
2022-11-14T03:59:42.218Z,22.08
2022-11-14T04:02:30.449Z,21.02
2022-11-14T04:05:17.271Z,21.77
2022-11-14T04:08:06.169Z,21.83
2022-11-14T04:10:53.159Z,22.80
2022-11-14T04:13:40.019Z,23.52
2022-11-14T04:16:26.707Z,22.40
2022-11-14T04:19:14.763Z,23.30
2022-11-14T04:22:01.956Z,23.35
2022-11-14T04:24:48.617Z,23.67
2022-11-14T04:27:35.550Z,20.85
2022-11-14T04:30:23.414Z,21.08
2022-11-14T04:33:10.021Z,23.58
2022-11-14T04:35:58.004Z,22.83
2022-11-14T04:38:44.833Z,23.40
2022-11-14T04:41:31.285Z,22.23
2022-11-14T04:44:17.889Z,22.60
2022-11-14T04:47:04.801Z,22.73
2022-11-14T04:49:51.228Z,23.30
2022-11-14T04:52:39.181Z,22.23
2022-11-14T04:55:25.768Z,23.30
2022-11-14T04:58:12.507Z,22.58
2022-11-14T05:00:59.350Z,23.85
2022-11-14T05:03:46.203Z,24.50
2022-11-14T05:06:33.194Z,23.88
2022-11-14T05:09:21.461Z,22.95
2022-11-14T05:12:08.764Z,21.73
2022-11-14T05:14:55.219Z,22.65
2022-11-14T05:17:42.016Z,21.42
2022-11-14T05:20:28.541Z,23.73
2022-11-14T05:23:21.936Z,22.52
2022-11-14T05:26:11.241Z,23.02
2022-11-14T05:28:57.917Z,23.63
2022-11-14T05:31:44.501Z,25.33
2022-11-14T05:34:31.137Z,23.65
2022-11-14T05:37:17.577Z,25.17
2022-11-14T05:40:04.868Z,24.65
2022-11-14T05:42:56.046Z,24.88
2022-11-14T05:45:42.965Z,26.55
2022-11-14T05:48:30.259Z,24.10
2022-11-14T05:51:17.360Z,24.65
2022-11-14T05:54:04.452Z,25.30
2022-11-14T05:56:51.824Z,26.60
2022-11-14T05:59:39.958Z,25.65
2022-11-14T06:02:26.383Z,25.55
2022-11-14T06:05:12.905Z,25.27
2022-11-14T06:08:00.708Z,26.23
2022-11-14T06:10:47.589Z,22.73
2022-11-14T06:13:34.975Z,24.13
2022-11-14T06:16:22.932Z,25.75
2022-11-14T06:19:09.505Z,23.90
2022-11-14T06:21:56.466Z,24.92
2022-11-14T06:24:43.287Z,24.95
2022-11-14T06:27:29.774Z,25.55
2022-11-14T06:30:16.943Z,23.48
2022-11-14T06:33:05.332Z,24.60
2022-11-14T06:35:51.945Z,23.40
2022-11-14T06:38:40.424Z,23.73
2022-11-14T06:41:27.323Z,23.80
2022-11-14T06:44:15.086Z,23.40
2022-11-14T06:47:02.742Z,23.83
2022-11-14T06:49:50.819Z,23.60
2022-11-14T06:52:37.573Z,23.75
2022-11-14T06:55:25.632Z,23.52
2022-11-14T06:58:12.935Z,24.02
2022-11-14T07:01:05.253Z,25.23
2022-11-14T07:03:51.914Z,23.73
2022-11-14T07:06:40.081Z,22.60
2022-11-14T07:09:27.118Z,21.80
2022-11-14T07:12:13.776Z,22.52
2022-11-14T07:15:00.335Z,20.00
2022-11-14T07:17:48.532Z,19.75
2022-11-14T07:20:35.047Z,18.98
2022-11-14T07:23:24.874Z,19.15
2022-11-14T07:26:12.884Z,17.02
2022-11-14T07:29:02.508Z,17.13
2022-11-14T07:31:49.386Z,16.13
2022-11-14T07:34:36.255Z,15.85
2022-11-14T07:37:23.480Z,16.77
2022-11-14T07:40:13.047Z,16.42
2022-11-14T07:43:00.836Z,16.80
2022-11-14T07:45:47.484Z,16.70
2022-11-14T07:48:34.794Z,16.25
2022-11-14T07:51:22.022Z,17.23
2022-11-14T07:54:11.296Z,16.90
2022-11-14T07:56:59.472Z,16.00
2022-11-14T07:59:46.422Z,14.85
2022-11-14T08:02:33.256Z,15.10
2022-11-14T08:05:19.991Z,15.93
2022-11-14T08:08:06.955Z,15.90
2022-11-14T08:10:56.913Z,17.48
2022-11-14T08:13:44.779Z,17.20
2022-11-14T08:16:31.470Z,16.98
2022-11-14T08:19:17.964Z,16.20
2022-11-14T08:22:04.322Z,18.30
2022-11-14T08:24:51.246Z,15.25
2022-11-14T08:27:38.118Z,15.63
2022-11-14T08:30:26.580Z,16.33
2022-11-14T08:33:13.164Z,14.90
2022-11-14T08:36:02.120Z,15.27
2022-11-14T08:38:51.479Z,15.32
2022-11-14T08:41:38.516Z,15.57
2022-11-14T08:44:25.151Z,15.50
2022-11-14T08:47:13.351Z,15.77
2022-11-14T08:50:00.292Z,15.48
2022-11-14T08:52:51.986Z,14.95
2022-11-14T08:55:38.967Z,14.90
2022-11-14T08:58:25.472Z,13.90
2022-11-14T09:01:12.430Z,14.30
2022-11-14T09:04:01.494Z,12.68
2022-11-14T09:06:48.250Z,11.95
2022-11-14T09:09:35.325Z,10.73
2022-11-14T09:12:22.193Z,10.82
2022-11-14T09:15:09.698Z,9.70
2022-11-14T09:17:56.569Z,11.18
2022-11-14T09:20:45.028Z,9.90
2022-11-14T09:23:32.189Z,10.70
2022-11-14T09:26:19.638Z,10.48
2022-11-14T09:29:06.651Z,9.65
2022-11-14T09:31:55.314Z,9.35
2022-11-14T09:34:45.533Z,9.70
2022-11-14T09:37:33.762Z,9.02
2022-11-14T09:40:20.513Z,9.25
2022-11-14T09:43:36.482Z,9.35
2022-11-14T09:46:25.792Z,8.43
2022-11-14T09:49:21.460Z,8.05
2022-11-14T09:52:20.897Z,9.38
2022-11-14T09:55:18.509Z,9.00
2022-11-14T09:58:06.422Z,8.73
2022-11-14T10:00:57.993Z,7.93
2022-11-14T10:03:53.584Z,8.60
2022-11-14T10:06:48.310Z,8.68
2022-11-14T10:09:50.840Z,8.88
2022-11-14T10:12:45.532Z,8.77
2022-11-14T10:15:41.966Z,8.65
2022-11-14T10:21:55.487Z,9.10
2022-11-14T10:24:52.406Z,9.70
2022-11-14T10:27:55.916Z,9.32
2022-11-14T10:30:54.539Z,8.77
2022-11-14T10:33:52.076Z,8.98
2022-11-14T10:36:49.864Z,9.13
2022-11-14T10:39:41.840Z,7.28
2022-11-14T10:42:36.216Z,6.95
2022-11-14T10:45:28.478Z,6.28
2022-11-14T10:48:23.319Z,6.45
2022-11-14T10:51:19.997Z,5.88
2022-11-14T10:56:56.503Z,5.65
2022-11-14T10:59:43.308Z,6.22
2022-11-14T11:02:49.806Z,5.78
2022-11-14T11:05:48.104Z,5.83
2022-11-14T11:09:00.277Z,5.50
2022-11-14T11:11:56.369Z,6.03
2022-11-14T11:14:43.098Z,4.82
2022-11-14T11:17:37.011Z,5.25
2022-11-14T11:20:32.601Z,5.18
2022-11-14T11:23:22.396Z,5.07
2022-11-14T11:26:23.140Z,5.53
2022-11-14T11:29:18.241Z,5.22
2022-11-14T11:32:05.914Z,5.13
2022-11-14T11:34:54.786Z,4.70
2022-11-14T11:37:45.368Z,4.65
2022-11-14T11:40:32.093Z,4.85
2022-11-14T11:43:44.385Z,5.20
2022-11-14T11:46:36.538Z,4.93
2022-11-14T11:49:35.823Z,5.25
2022-11-14T11:52:33.021Z,4.88
2022-11-14T11:55:24.438Z,4.90
2022-11-14T11:58:17.701Z,4.53
2022-11-14T12:01:04.675Z,4.20
2022-11-14T12:03:53.103Z,3.95
2022-11-14T12:06:46.912Z,4.03
2022-11-14T12:10:09.195Z,3.55
2022-11-14T12:13:04.449Z,3.88
2022-11-14T12:16:00.820Z,4.20
2022-11-14T12:19:20.290Z,3.97
2022-11-14T12:22:30.445Z,3.90
2022-11-14T12:25:39.655Z,3.60
2022-11-14T12:28:42.981Z,3.25
2022-11-14T12:31:33.172Z,4.10
2022-11-14T12:34:28.346Z,3.50
2022-11-14T12:37:20.277Z,3.90
2022-11-14T12:40:09.442Z,3.72
2022-11-14T12:42:58.900Z,3.53
2022-11-14T12:46:00.432Z,4.20
2022-11-14T12:48:47.787Z,3.80
2022-11-14T12:51:51.659Z,4.03
2022-11-14T12:54:46.515Z,3.88
2022-11-14T12:57:51.497Z,3.88
2022-11-14T13:01:00.066Z,4.65
2022-11-14T13:03:58.920Z,3.50
2022-11-14T13:06:55.273Z,3.80
2022-11-14T13:10:04.965Z,4.47
2022-11-14T13:13:17.921Z,3.50
2022-11-14T13:16:23.978Z,4.07
2022-11-14T13:19:36.782Z,3.60
2022-11-14T13:22:41.533Z,4.45
2022-11-14T13:25:28.722Z,3.10
2022-11-14T13:28:48.572Z,3.78
2022-11-14T13:31:51.933Z,3.50
2022-11-14T13:34:50.988Z,3.92
2022-11-14T13:38:00.030Z,3.30
2022-11-14T13:40:54.984Z,3.60
2022-11-14T13:43:57.481Z,3.50
2022-11-14T13:47:09.230Z,3.88
2022-11-14T13:50:14.352Z,4.43
2022-11-14T13:53:00.990Z,3.80
2022-11-14T13:55:57.263Z,3.72
2022-11-14T13:59:34.816Z,3.22
2022-11-14T14:02:41.431Z,3.75
2022-11-14T14:05:52.584Z,4.38
2022-11-14T14:09:01.496Z,3.92
2022-11-14T14:12:03.160Z,3.60
2022-11-14T14:15:10.610Z,4.03
2022-11-14T14:18:07.235Z,3.05
2022-11-14T14:21:01.709Z,3.75
2022-11-14T14:23:54.376Z,3.88
2022-11-14T14:26:55.745Z,3.10
2022-11-14T14:29:50.386Z,3.63
2022-11-14T14:32:37.078Z,3.85
2022-11-14T14:35:28.266Z,3.60
2022-11-14T14:38:24.261Z,3.80
2022-11-14T14:41:13.582Z,3.60
2022-11-14T14:44:01.095Z,3.80
2022-11-14T14:46:47.938Z,4.18
2022-11-14T14:49:38.774Z,3.92
2022-11-14T14:52:31.794Z,4.20
2022-11-14T14:55:21.417Z,4.43
2022-11-14T14:58:22.066Z,4.70
2022-11-14T15:01:13.553Z,4.93
2022-11-14T15:04:06.096Z,4.85
2022-11-14T15:06:53.387Z,5.00
2022-11-14T15:09:53.201Z,4.03
2022-11-14T15:12:43.183Z,3.90
2022-11-14T15:15:31.252Z,3.92
2022-11-14T15:18:25.540Z,4.63
2022-11-14T15:21:17.589Z,4.22
2022-11-14T15:24:14.327Z,4.78
2022-11-14T15:27:06.532Z,4.50
2022-11-14T15:29:58.698Z,4.80
2022-11-14T15:32:50.224Z,5.25
2022-11-14T15:35:38.666Z,4.95
2022-11-14T15:41:33.068Z,5.80
2022-11-14T15:44:34.698Z,5.35
2022-11-14T15:47:24.015Z,5.28
2022-11-14T15:50:26.704Z,5.85
2022-11-14T15:53:23.595Z,6.22
2022-11-14T15:56:13.283Z,5.65
2022-11-14T15:59:00.268Z,5.68
2022-11-14T16:01:52.247Z,6.05
2022-11-14T16:04:45.980Z,6.13
2022-11-14T16:07:34.329Z,7.15
2022-11-14T16:10:22.296Z,6.88
2022-11-14T16:13:08.889Z,6.75
2022-11-14T16:15:55.340Z,7.38
2022-11-14T16:18:48.196Z,8.55
2022-11-14T16:21:35.376Z,8.50
2022-11-14T16:24:27.549Z,7.93
2022-11-14T16:27:16.555Z,6.85
2022-11-14T16:30:03.888Z,8.13
2022-11-14T16:32:51.798Z,8.57
2022-11-14T16:35:40.116Z,9.05
2022-11-14T16:38:26.745Z,10.20
2022-11-14T16:41:20.569Z,9.50
2022-11-14T16:44:07.660Z,10.90
2022-11-14T16:46:54.171Z,10.60
2022-11-14T16:49:40.872Z,11.93
2022-11-14T16:52:28.966Z,11.95
2022-11-14T16:55:15.805Z,11.30
2022-11-14T16:58:02.798Z,11.98
2022-11-14T17:00:49.682Z,12.80
2022-11-14T17:03:36.235Z,13.32
2022-11-14T17:06:22.893Z,12.63
2022-11-14T17:09:14.568Z,13.63
2022-11-14T17:12:01.126Z,13.93
2022-11-14T17:14:47.715Z,13.15
2022-11-14T17:17:37.432Z,14.00
2022-11-14T17:20:24.260Z,14.45
2022-11-14T17:23:10.774Z,13.73
2022-11-14T17:26:03.838Z,14.40
2022-11-14T17:28:50.550Z,14.77
2022-11-14T17:31:38.952Z,15.35
2022-11-14T17:34:28.121Z,17.25
2022-11-14T17:37:15.164Z,18.13
2022-11-14T17:40:01.687Z,17.95
2022-11-14T17:42:49.739Z,17.58
2022-11-14T17:45:40.945Z,22.13
2022-11-14T17:48:27.972Z,18.48
2022-11-14T17:51:15.647Z,16.42
2022-11-14T17:54:02.416Z,22.10
2022-11-14T17:56:54.654Z,16.73
2022-11-14T17:59:43.193Z,16.15
2022-11-14T18:02:29.740Z,16.33
2022-11-14T18:05:16.896Z,15.93
2022-11-14T18:08:03.691Z,16.50
2022-11-14T18:10:50.947Z,14.82
2022-11-14T18:13:37.637Z,16.15
2022-11-14T18:16:28.631Z,16.00
2022-11-14T18:19:25.827Z,17.00
2022-11-14T18:22:12.451Z,16.08
2022-11-14T18:25:04.848Z,16.67
2022-11-14T18:27:54.154Z,16.23
2022-11-14T18:30:42.465Z,16.45
2022-11-14T18:33:30.693Z,15.15
2022-11-14T18:36:17.854Z,14.57
2022-11-14T18:39:05.076Z,15.50
2022-11-14T18:41:51.931Z,14.00
2022-11-14T18:44:38.363Z,14.85
2022-11-14T18:47:25.142Z,14.80
2022-11-14T18:50:14.039Z,13.73
2022-11-14T18:53:00.872Z,14.65
2022-11-14T18:55:53.037Z,13.77
2022-11-14T18:58:41.363Z,14.20
2022-11-14T19:01:32.198Z,13.52
2022-11-14T19:04:19.714Z,12.32
2022-11-14T19:07:07.803Z,13.05
2022-11-14T19:09:54.584Z,13.90
2022-11-14T19:12:42.915Z,13.10
2022-11-14T19:15:29.810Z,12.13
2022-11-14T19:18:16.344Z,11.77
2022-11-14T19:21:10.693Z,11.82
2022-11-14T19:23:59.627Z,11.15
2022-11-14T19:26:46.589Z,11.77
2022-11-14T19:29:33.435Z,11.45
2022-11-14T19:32:19.775Z,11.98
2022-11-14T19:35:07.166Z,11.05
2022-11-14T19:37:54.022Z,11.18
2022-11-14T19:40:42.016Z,12.50
2022-11-14T19:43:28.722Z,11.95
2022-11-14T19:46:16.997Z,13.23
2022-11-14T19:49:04.064Z,14.18
2022-11-14T19:51:51.322Z,13.07
2022-11-14T19:54:38.045Z,13.25
2022-11-14T19:57:26.077Z,13.63
2022-11-14T20:00:14.136Z,13.27
2022-11-14T20:03:00.931Z,14.02
2022-11-14T20:05:47.523Z,13.10
2022-11-14T20:08:34.183Z,14.35
2022-11-14T20:11:21.439Z,14.38
2022-11-14T20:14:11.219Z,12.85
2022-11-14T20:16:57.870Z,13.00
2022-11-14T20:19:44.408Z,13.30
2022-11-14T20:22:31.191Z,13.98
2022-11-14T20:25:17.820Z,13.48
2022-11-14T20:28:07.916Z,13.52
2022-11-14T20:30:56.233Z,14.63
2022-11-14T20:33:44.855Z,15.30
2022-11-14T20:36:50.007Z,14.45
2022-11-14T20:39:38.361Z,14.63
2022-11-14T20:42:25.074Z,14.48
2022-11-14T20:45:11.816Z,15.30
2022-11-14T20:48:00.087Z,14.57
2022-11-14T20:50:47.557Z,14.93
2022-11-14T20:53:34.596Z,13.98
2022-11-14T20:56:27.307Z,13.85
2022-11-14T20:59:13.906Z,13.05
2022-11-14T21:02:00.988Z,13.30
2022-11-14T21:04:49.226Z,14.45
2022-11-14T21:07:36.879Z,12.57
2022-11-14T21:10:41.940Z,13.68
2022-11-14T21:13:45.997Z,14.50
2022-11-14T21:16:34.614Z,12.25
2022-11-14T21:19:22.770Z,13.27
2022-11-14T21:22:11.003Z,12.55
2022-11-14T21:24:58.133Z,13.95
2022-11-14T21:27:45.107Z,13.45
2022-11-14T21:30:32.909Z,13.35
2022-11-14T21:33:19.925Z,12.90
2022-11-14T21:36:22.872Z,12.77
2022-11-14T21:42:03.582Z,12.50
2022-11-14T21:44:50.148Z,11.77
2022-11-14T21:47:36.948Z,12.27
2022-11-14T21:50:23.933Z,12.68
2022-11-14T21:53:16.301Z,13.10
2022-11-14T21:56:12.519Z,13.80
2022-11-14T21:59:14.051Z,13.13
2022-11-14T22:02:18.278Z,13.38
2022-11-14T22:05:05.354Z,10.93
2022-11-14T22:07:51.939Z,13.02
2022-11-14T22:10:38.478Z,11.43
2022-11-14T22:13:26.870Z,11.70
2022-11-14T22:16:17.659Z,10.80
2022-11-14T22:19:05.586Z,11.05
2022-11-14T22:21:52.992Z,10.80
2022-11-14T22:24:39.520Z,10.15
2022-11-14T22:27:27.160Z,10.55
2022-11-14T22:30:16.105Z,10.25
2022-11-14T22:33:02.838Z,10.98
2022-11-14T22:35:49.349Z,10.60
2022-11-14T22:38:37.856Z,9.20
2022-11-14T22:41:32.353Z,11.27
2022-11-14T22:44:20.144Z,10.45
2022-11-14T22:47:08.199Z,9.82
2022-11-14T22:49:55.084Z,9.38
2022-11-14T22:52:42.010Z,10.70
2022-11-14T22:55:28.811Z,11.18
2022-11-14T22:58:15.312Z,9.90
2022-11-14T23:01:02.558Z,11.38
2022-11-14T23:03:55.531Z,9.75
2022-11-14T23:06:42.287Z,10.23
2022-11-14T23:09:29.854Z,10.40
2022-11-14T23:12:16.628Z,9.55
2022-11-14T23:15:03.509Z,9.55
2022-11-14T23:17:50.241Z,9.65
2022-11-14T23:20:38.332Z,9.63
2022-11-14T23:23:25.462Z,9.02
2022-11-14T23:26:14.541Z,9.57
2022-11-14T23:29:01.613Z,9.32
2022-11-14T23:31:48.385Z,8.77
2022-11-14T23:34:35.307Z,9.50
2022-11-14T23:37:23.402Z,9.70
2022-11-14T23:40:11.238Z,9.68
2022-11-14T23:42:58.005Z,8.90
2022-11-14T23:45:44.679Z,8.15
2022-11-14T23:48:31.311Z,9.65
2022-11-14T23:51:17.965Z,9.27
2022-11-14T23:54:05.938Z,9.48
2022-11-14T23:56:52.391Z,9.90
2022-11-14T23:59:39.407Z,10.05
